Time;durP1;ratioP1;P1;durP2;ratioP2;P2;SDS_P1;SDS_P2;PMS_P1;PMS_P2;Temp;Humidity;BMP_temperature;BMP_pressure;BME280_temperature;BME280_humidity;BME280_pressure;Samples;Min_cycle;Max_cycle;Signal;HPM_P1;HPM_P2
2024/02/06 00:00:25;;;;;;;;;;;;;;;7.04;100.00;100941.06;5107869;28;19923;-75
2024/02/06 00:02:50;;;;;;;;;;;;;;;7.02;100.00;100940.41;5103338;28;19931;-75
2024/02/06 00:05:16;;;;;;;;;;;;;;;7.01;100.00;100936.06;5103430;28;19989;-75
2024/02/06 00:07:42;;;;;;;;;;;;;;;7.11;100.00;100935.88;5104284;28;19943;-75
2024/02/06 00:10:10;;;;;;;;;;;;;;;7.16;100.00;100938.84;5101222;28;20616;-75
2024/02/06 00:12:35;;;;;;;;;;;;;;;6.98;100.00;100925.69;5111258;28;20322;-75
2024/02/06 00:15:00;;;;;;;;;;;;;;;7.04;100.00;100930.38;5107906;28;19924;-75
2024/02/06 00:17:26;;;;;;;;;;;;;;;7.04;100.00;100925.00;5102207;28;19920;-75
2024/02/06 00:19:51;;;;;;;;;;;;;;;7.02;100.00;100915.47;5096678;28;19920;-75
2024/02/06 00:22:16;;;;;;;;;;;;;;;7.17;100.00;100902.22;5102995;28;19920;-75
2024/02/06 00:24:41;;;;;;;;;;;;;;;7.06;100.00;100917.63;5095464;28;19927;-75
2024/02/06 00:27:06;;;;;;;;;;;;;;;7.14;100.00;100914.13;5093014;28;20015;-75
2024/02/06 00:29:32;;;;;;;;;;;;;;;7.16;100.00;100906.72;5103929;28;20006;-75
2024/02/06 00:31:57;;;;;;;;;;;;;;;7.16;100.00;100913.94;5093627;28;20011;-75
2024/02/06 00:34:22;;;;;;;;;;;;;;;7.26;100.00;100901.16;5101607;28;20344;-75
2024/02/06 00:36:47;;;;;;;;;;;;;;;7.30;100.00;100904.34;5092570;28;20439;-75
2024/02/06 00:39:13;;;;;;;;;;;;;;;7.26;100.00;100895.81;5098847;28;19920;-75
2024/02/06 00:41:38;;;;;;;;;;;;;;;7.24;100.00;100884.44;5097348;28;19926;-75
2024/02/06 00:44:03;;;;;;;;;;;;;;;7.19;100.00;100900.19;5104070;28;19949;-75
2024/02/06 00:46:28;;;;;;;;;;;;;;;7.16;100.00;100885.28;5103798;28;20284;-75
2024/02/06 00:48:55;;;;;;;;;;;;;;;7.12;100.00;100884.81;5096428;28;20014;-75
2024/02/06 00:51:20;;;;;;;;;;;;;;;7.22;100.00;100884.63;5106667;28;20332;-75
2024/02/06 00:53:46;;;;;;;;;;;;;;;7.31;100.00;100879.22;5092275;28;19923;-75
2024/02/06 00:56:11;;;;;;;;;;;;;;;7.17;100.00;100878.13;5100586;28;19923;-75
2024/02/06 00:58:36;;;;;;;;;;;;;;;7.16;100.00;100885.28;5101239;28;19923;-75
2024/02/06 01:01:01;;;;;;;;;;;;;;;7.19;100.00;100876.09;5095968;28;19974;-75
2024/02/06 01:03:26;;;;;;;;;;;;;;;7.28;100.00;100862.50;5099848;28;19962;-75
2024/02/06 01:05:52;;;;;;;;;;;;;;;7.23;100.00;100874.75;5105152;28;20332;-75
2024/02/06 01:08:17;;;;;;;;;;;;;;;7.30;100.00;100848.94;5104455;27;20360;-75
2024/02/06 01:10:43;;;;;;;;;;;;;;;7.28;100.00;100862.50;5103508;28;20447;-75
2024/02/06 01:13:08;;;;;;;;;;;;;;;7.27;100.00;100854.63;5108520;27;20006;-75
2024/02/06 01:15:33;;;;;;;;;;;;;;;7.33;100.00;100840.53;5094282;28;20030;-75
2024/02/06 01:17:59;;;;;;;;;;;;;;;7.27;100.00;100834.06;5104191;28;19942;-75
2024/02/06 01:20:24;;;;;;;;;;;;;;;7.28;100.00;100846.44;5103264;28;19958;-75
2024/02/06 01:22:49;;;;;;;;;;;;;;;7.29;100.00;100849.94;5104567;28;19969;-74
2024/02/06 01:25:15;;;;;;;;;;;;;;;7.31;100.00;100842.56;5101123;28;19920;-75
2024/02/06 01:27:40;;;;;;;;;;;;;;;7.32;100.00;100840.75;5109483;27;20015;-75
2024/02/06 01:30:05;;;;;;;;;;;;;;;7.29;100.00;100847.25;5103946;28;20346;-75
2024/02/06 01:32:30;;;;;;;;;;;;;;;7.32;100.00;100846.91;5095749;28;19969;-75
2024/02/06 01:34:56;;;;;;;;;;;;;;;7.40;100.00;100829.97;5102068;28;20006;-75
2024/02/06 01:37:21;;;;;;;;;;;;;;;7.34;100.00;100841.38;5102629;28;19957;-75
2024/02/06 01:39:46;;;;;;;;;;;;;;;7.41;100.00;100829.78;5106505;28;19938;-75
2024/02/06 01:42:12;;;;;;;;;;;;;;;7.44;100.00;100845.50;5106672;28;19927;-75
2024/02/06 01:44:37;;;;;;;;;;;;;;;7.34;100.00;100850.25;5101295;28;19924;-75
2024/02/06 01:47:03;;;;;;;;;;;;;;;7.35;100.00;100814.44;5100047;28;19936;-76
2024/02/06 01:49:28;;;;;;;;;;;;;;;7.34;100.00;100818.13;5077056;28;19927;-74
2024/02/06 01:51:54;;;;;;;;;;;;;;;7.39;100.00;100823.78;5075567;28;19928;-74
2024/02/06 01:54:20;;;;;;;;;;;;;;;7.46;100.00;100818.56;5099613;28;19919;-75
2024/02/06 01:56:45;;;;;;;;;;;;;;;7.46;100.00;100820.38;5105966;28;19928;-74
2024/02/06 01:59:10;;;;;;;;;;;;;;;7.44;100.00;100808.00;5099254;28;20299;-74
2024/02/06 02:01:35;;;;;;;;;;;;;;;7.45;100.00;100816.88;5084555;28;19991;-74
2024/02/06 02:04:00;;;;;;;;;;;;;;;7.35;100.00;100818.94;5104317;28;19943;-74
2024/02/06 02:06:26;;;;;;;;;;;;;;;7.48;100.00;100813.00;5093703;28;19920;-74
2024/02/06 02:08:51;;;;;;;;;;;;;;;7.54;100.00;100812.31;5108496;28;19920;-75
2024/02/06 02:11:17;;;;;;;;;;;;;;;7.52;100.00;100809.78;5104999;28;19920;-74
2024/02/06 02:13:42;;;;;;;;;;;;;;;7.47;100.00;100819.38;5107891;28;19923;-74
2024/02/06 02:16:07;;;;;;;;;;;;;;;7.55;100.00;100803.25;5113020;28;19920;-74
2024/02/06 02:18:33;;;;;;;;;;;;;;;7.56;100.00;100768.25;5100242;28;19926;-73
2024/02/06 02:20:59;;;;;;;;;;;;;;;7.63;100.00;100808.53;5099281;28;19964;-73
2024/02/06 02:23:24;;;;;;;;;;;;;;;7.58;100.00;100794.88;5103111;28;19928;-74
2024/02/06 02:25:49;;;;;;;;;;;;;;;7.62;100.00;100796.16;5084151;28;20002;-74
2024/02/06 02:28:14;;;;;;;;;;;;;;;7.56;100.00;100788.84;5076099;28;19934;-74
2024/02/06 02:30:40;;;;;;;;;;;;;;;7.59;100.00;100783.13;5100535;28;19928;-74
2024/02/06 02:33:05;;;;;;;;;;;;;;;7.57;100.00;100777.94;5116562;28;19944;-74
2024/02/06 02:35:30;;;;;;;;;;;;;;;7.57;100.00;100774.44;5084322;28;20018;-74
2024/02/06 02:37:56;;;;;;;;;;;;;;;7.55;100.00;100781.81;5109859;27;20027;-74
2024/02/06 02:40:21;;;;;;;;;;;;;;;7.68;100.00;100781.22;5102776;28;19927;-74
2024/02/06 02:42:46;;;;;;;;;;;;;;;7.56;100.00;100768.25;5104794;27;20024;-74
2024/02/06 02:45:11;;;;;;;;;;;;;;;7.50;100.00;100765.44;5107557;28;19928;-74
2024/02/06 02:47:37;;;;;;;;;;;;;;;7.51;100.00;100764.44;5098299;28;20003;-73
2024/02/06 02:50:02;;;;;;;;;;;;;;;7.58;100.00;100760.88;5097889;28;20030;-73
2024/02/06 02:52:27;;;;;;;;;;;;;;;7.62;100.00;100749.78;5111807;27;19920;-73
2024/02/06 02:54:52;;;;;;;;;;;;;;;7.70;100.00;100741.66;5101624;28;20439;-73
2024/02/06 02:57:18;;;;;;;;;;;;;;;7.65;100.00;100754.78;5101015;28;20430;-73
2024/02/06 02:59:43;;;;;;;;;;;;;;;7.73;100.00;100750.19;5106099;27;20011;-73
2024/02/06 03:02:08;;;;;;;;;;;;;;;7.72;100.00;100745.00;5104844;28;19935;-73
2024/02/06 03:04:33;;;;;;;;;;;;;;;7.76;100.00;100737.47;5093888;28;19924;-73
2024/02/06 03:06:59;;;;;;;;;;;;;;;7.71;100.00;100740.66;5097887;28;19924;-73
2024/02/06 03:09:24;;;;;;;;;;;;;;;7.81;100.00;100748.44;5099534;28;19927;-73
2024/02/06 03:11:49;;;;;;;;;;;;;;;7.72;100.00;100743.19;5100045;27;19946;-73
2024/02/06 03:14:15;;;;;;;;;;;;;;;7.74;100.00;100733.13;5109795;27;19977;-73
2024/02/06 03:16:40;;;;;;;;;;;;;;;7.76;100.00;100732.09;5096278;28;19920;-74
2024/02/06 03:19:05;;;;;;;;;;;;;;;7.69;100.00;100737.31;5104428;28;19920;-76
2024/02/06 03:21:31;;;;;;;;;;;;;;;7.71;100.00;100730.78;5103467;27;20363;-75
2024/02/06 03:23:56;;;;;;;;;;;;;;;7.74;100.00;100719.72;5105161;28;19942;-75
2024/02/06 03:26:21;;;;;;;;;;;;;;;7.77;100.00;100725.69;5116173;27;20010;-75
2024/02/06 03:28:46;;;;;;;;;;;;;;;7.84;100.00;100715.94;5100893;28;20028;-75
2024/02/06 03:31:11;;;;;;;;;;;;;;;7.89;100.00;100724.25;5098341;28;20011;-75
2024/02/06 03:33:37;;;;;;;;;;;;;;;7.76;100.00;100729.41;5101420;28;20007;-76
2024/02/06 03:36:02;;;;;;;;;;;;;;;7.79;100.00;100727.19;5092769;28;19920;-76
2024/02/06 03:38:27;;;;;;;;;;;;;;;7.74;100.00;100727.75;5097183;28;19928;-76
2024/02/06 03:40:52;;;;;;;;;;;;;;;7.78;100.00;100722.00;5106540;28;19943;-75
2024/02/06 03:43:18;;;;;;;;;;;;;;;7.73;100.00;100731.44;5115186;27;19932;-75
2024/02/06 03:45:43;;;;;;;;;;;;;;;7.67;100.00;100715.25;5103980;28;19915;-76
2024/02/06 03:48:08;;;;;;;;;;;;;;;7.66;100.00;100717.09;5110290;28;19932;-76
2024/02/06 03:50:34;;;;;;;;;;;;;;;7.66;100.00;100709.06;5098823;28;19924;-76
2024/02/06 03:52:59;;;;;;;;;;;;;;;7.72;100.00;100721.75;5101668;28;19951;-76
2024/02/06 03:55:24;;;;;;;;;;;;;;;7.68;100.00;100701.66;5102272;28;19920;-76
2024/02/06 03:57:49;;;;;;;;;;;;;;;7.76;100.00;100710.66;5105946;28;19931;-76
2024/02/06 04:00:15;;;;;;;;;;;;;;;7.76;100.00;100726.75;5102537;28;19920;-76
2024/02/06 04:02:40;;;;;;;;;;;;;;;7.57;100.00;100720.88;5110917;28;19928;-76
2024/02/06 04:05:06;;;;;;;;;;;;;;;7.56;100.00;100713.84;5108860;28;19959;-76
2024/02/06 04:07:31;;;;;;;;;;;;;;;7.41;100.00;100703.06;5103566;28;20006;-76
2024/02/06 04:09:56;;;;;;;;;;;;;;;7.40;100.00;100718.31;5107901;27;19972;-76
2024/02/06 04:12:21;;;;;;;;;;;;;;;7.39;100.00;100703.28;5107196;28;19920;-76
2024/02/06 04:14:46;;;;;;;;;;;;;;;7.49;100.00;100716.41;5098265;28;20303;-76
2024/02/06 04:17:12;;;;;;;;;;;;;;;7.34;100.00;100705.66;5112381;28;19920;-76
2024/02/06 04:19:37;;;;;;;;;;;;;;;7.35;100.00;100707.31;5096159;28;19928;-76
2024/02/06 04:22:02;;;;;;;;;;;;;;;7.38;100.00;100706.97;5099953;28;19923;-77
2024/02/06 04:24:27;;;;;;;;;;;;;;;7.38;100.00;100709.63;5102955;28;19920;-76
2024/02/06 04:26:53;;;;;;;;;;;;;;;7.28;100.00;100701.84;5092466;28;19916;-76
2024/02/06 04:29:18;;;;;;;;;;;;;;;7.34;100.00;100705.66;5099983;28;19957;-76
2024/02/06 04:31:43;;;;;;;;;;;;;;;7.30;100.00;100692.81;5109074;28;19915;-76
2024/02/06 04:34:08;;;;;;;;;;;;;;;7.28;100.00;100688.44;5104815;28;20655;-76
2024/02/06 04:36:34;;;;;;;;;;;;;;;7.25;100.00;100693.31;5103232;28;20456;-76
2024/02/06 04:38:59;;;;;;;;;;;;;;;7.26;100.00;100686.94;5109452;28;19974;-76
2024/02/06 04:41:24;;;;;;;;;;;;;;;7.34;100.00;100694.94;5109664;28;19928;-76
2024/02/06 04:43:50;;;;;;;;;;;;;;;7.13;100.00;100690.25;5101760;28;20514;-76
2024/02/06 04:46:15;;;;;;;;;;;;;;;7.13;100.00;100693.75;5105127;28;20519;-77
2024/02/06 04:48:41;;;;;;;;;;;;;;;7.20;100.00;100693.03;5099161;28;20680;-76
2024/02/06 04:51:06;;;;;;;;;;;;;;;7.15;100.00;100679.34;5104104;28;19924;-77
2024/02/06 04:53:31;;;;;;;;;;;;;;;7.24;100.00;100680.94;5109647;28;19923;-77
2024/02/06 04:55:56;;;;;;;;;;;;;;;7.26;100.00;100679.75;5102319;28;19926;-76
2024/02/06 04:58:22;;;;;;;;;;;;;;;7.30;100.00;100684.75;5109803;28;19927;-77
2024/02/06 05:00:47;;;;;;;;;;;;;;;7.18;100.00;100676.31;5099613;28;19924;-76
2024/02/06 05:03:12;;;;;;;;;;;;;;;7.24;100.00;100675.59;5094905;28;19916;-76
2024/02/06 05:05:37;;;;;;;;;;;;;;;7.36;100.00;100671.50;5109307;28;19916;-81
2024/02/06 05:08:03;;;;;;;;;;;;;;;7.26;100.00;100676.25;5102347;28;19931;-77
2024/02/06 05:10:28;;;;;;;;;;;;;;;7.21;100.00;100667.94;5100652;28;19931;-77
2024/02/06 05:12:54;;;;;;;;;;;;;;;7.24;100.00;100656.84;5105857;27;20025;-77
2024/02/06 05:15:19;;;;;;;;;;;;;;;7.25;100.00;100662.03;5104690;28;20014;-77
2024/02/06 05:17:44;;;;;;;;;;;;;;;7.25;100.00;100671.88;5103855;28;19916;-76
2024/02/06 05:20:10;;;;;;;;;;;;;;;7.32;100.00;100650.63;5100124;28;19978;-76
2024/02/06 05:22:37;;;;;;;;;;;;;;;7.27;100.00;100665.38;5108035;28;19927;-76
2024/02/06 05:25:02;;;;;;;;;;;;;;;7.37;100.00;100646.38;5105926;28;19920;-77
2024/02/06 05:27:27;;;;;;;;;;;;;;;7.24;100.00;100640.78;5091662;28;19964;-77
2024/02/06 05:29:52;;;;;;;;;;;;;;;7.24;100.00;100636.28;5100455;28;20362;-77
2024/02/06 05:32:18;;;;;;;;;;;;;;;7.25;100.00;100647.78;5100761;28;20386;-77
2024/02/06 05:34:43;;;;;;;;;;;;;;;7.28;100.00;100628.69;5100365;28;20376;-77
2024/02/06 05:37:08;;;;;;;;;;;;;;;7.35;100.00;100629.66;5104347;28;20395;-77
2024/02/06 05:39:33;;;;;;;;;;;;;;;7.29;100.00;100643.75;5095040;28;20654;-78
2024/02/06 05:41:59;;;;;;;;;;;;;;;7.21;100.00;100630.44;5101019;28;20026;-79
2024/02/06 05:44:24;;;;;;;;;;;;;;;7.21;100.00;100627.78;5094194;28;19997;-77
2024/02/06 05:46:49;;;;;;;;;;;;;;;7.17;100.00;100639.84;5097869;28;19950;-78
2024/02/06 05:49:15;;;;;;;;;;;;;;;7.25;100.00;100623.69;5091050;28;19951;-79
2024/02/06 05:51:40;;;;;;;;;;;;;;;7.28;100.00;100626.88;5096832;28;20448;-78
2024/02/06 05:54:08;;;;;;;;;;;;;;;7.22;100.00;100626.75;5098922;28;20339;-78
2024/02/06 05:56:34;;;;;;;;;;;;;;;7.32;100.00;100621.97;5098298;28;19920;-78
2024/02/06 05:58:59;;;;;;;;;;;;;;;7.36;100.00;100612.56;5091146;28;19926;-78
2024/02/06 06:01:25;;;;;;;;;;;;;;;7.33;100.00;100604.03;5094422;28;19920;-78
2024/02/06 06:03:50;;;;;;;;;;;;;;;7.35;100.00;100604.69;5093912;28;20322;-78
2024/02/06 06:06:15;;;;;;;;;;;;;;;7.35;100.00;100610.91;5105110;28;20280;-78
2024/02/06 06:08:40;;;;;;;;;;;;;;;7.23;100.00;100612.38;5092268;28;19959;-78
2024/02/06 06:11:06;;;;;;;;;;;;;;;7.24;100.00;100596.09;5103576;28;19962;-78
2024/02/06 06:13:33;;;;;;;;;;;;;;;7.22;100.00;100621.41;5104292;28;19955;-78
2024/02/06 06:15:58;;;;;;;;;;;;;;;7.19;100.00;100621.75;5106292;28;19916;-79
2024/02/06 06:18:23;;;;;;;;;;;;;;;7.20;100.00;100615.41;5106393;28;20006;-79
2024/02/06 06:20:48;;;;;;;;;;;;;;;7.14;100.00;100606.25;5104498;28;19924;-79
2024/02/06 06:23:14;;;;;;;;;;;;;;;7.20;100.00;100602.00;5106781;28;19927;-79
2024/02/06 06:25:39;;;;;;;;;;;;;;;7.13;100.00;100597.38;5095372;28;19920;-79
2024/02/06 06:28:04;;;;;;;;;;;;;;;7.06;100.00;100600.94;5097142;28;19931;-79
2024/02/06 06:30:29;;;;;;;;;;;;;;;7.10;100.00;100597.72;5103418;28;19924;-79
2024/02/06 06:32:55;;;;;;;;;;;;;;;7.09;100.00;100596.06;5102594;28;20007;-78
2024/02/06 06:35:20;;;;;;;;;;;;;;;7.13;100.00;100600.03;5097009;28;19931;-79
2024/02/06 06:37:54;;;;;;;;;;;;;;;7.08;100.00;100605.09;5095801;28;19920;-78
2024/02/06 06:40:19;;;;;;;;;;;;;;;7.18;100.00;100587.97;5093885;28;19932;-79
2024/02/06 06:42:45;;;;;;;;;;;;;;;7.22;100.00;100603.47;5093419;28;19923;-78
2024/02/06 06:45:10;;;;;;;;;;;;;;;7.13;100.00;100602.72;5107127;28;20419;-79
2024/02/06 06:47:36;;;;;;;;;;;;;;;7.16;100.00;100606.06;5106817;28;19932;-78
2024/02/06 06:50:01;;;;;;;;;;;;;;;7.09;100.00;100596.06;5104808;28;19920;-79
2024/02/06 06:52:27;;;;;;;;;;;;;;;7.13;100.00;100597.38;5100155;28;19949;-79
2024/02/06 06:54:53;;;;;;;;;;;;;;;7.24;100.00;100576.50;5102923;28;20015;-79
2024/02/06 06:57:18;;;;;;;;;;;;;;;7.25;100.00;100594.25;5105224;28;20015;-79
2024/02/06 06:59:43;;;;;;;;;;;;;;;7.27;100.00;100576.16;5099104;28;19999;-79
2024/02/06 07:02:08;;;;;;;;;;;;;;;7.29;100.00;100579.50;5096663;28;19943;-78
2024/02/06 07:04:35;;;;;;;;;;;;;;;7.24;100.00;100568.47;5100049;28;20311;-78
2024/02/06 07:07:00;;;;;;;;;;;;;;;7.29;100.00;100568.78;5105150;28;19951;-80
2024/02/06 07:09:26;;;;;;;;;;;;;;;7.39;100.00;100579.22;5110090;28;19967;-78
2024/02/06 07:11:53;;;;;;;;;;;;;;;7.32;100.00;100576.44;5103582;28;19955;-79
2024/02/06 07:14:19;;;;;;;;;;;;;;;7.38;100.00;100581.09;5107995;28;19920;-78
2024/02/06 07:16:44;;;;;;;;;;;;;;;7.50;100.00;100572.59;5099648;28;19969;-79
2024/02/06 07:19:09;;;;;;;;;;;;;;;7.47;100.00;100571.13;5104706;28;19919;-79
2024/02/06 07:21:35;;;;;;;;;;;;;;;7.49;100.00;100573.59;5097877;28;19920;-79
2024/02/06 07:24:00;;;;;;;;;;;;;;;7.57;100.00;100568.19;5098901;28;20007;-78
2024/02/06 07:26:26;;;;;;;;;;;;;;;7.63;100.00;100580.81;5105052;28;20122;-78
2024/02/06 07:28:51;;;;;;;;;;;;;;;7.69;100.00;100565.84;5093941;28;20123;-78
2024/02/06 07:31:16;;;;;;;;;;;;;;;7.69;100.00;100568.53;5107845;28;20360;-79
2024/02/06 07:33:42;;;;;;;;;;;;;;;7.68;100.00;100567.72;5097006;28;20339;-78
2024/02/06 07:36:07;;;;;;;;;;;;;;;7.77;100.00;100564.91;5102962;28;20030;-78
2024/02/06 07:38:33;;;;;;;;;;;;;;;7.80;100.00;100572.59;5098466;28;19980;-78
2024/02/06 07:40:58;;;;;;;;;;;;;;;7.80;100.00;100572.59;5099065;28;20252;-79
2024/02/06 07:43:24;;;;;;;;;;;;;;;7.69;100.00;100577.41;5101609;28;19920;-79
2024/02/06 07:45:50;;;;;;;;;;;;;;;7.81;100.00;100576.94;5098891;28;19920;-80
2024/02/06 07:48:16;;;;;;;;;;;;;;;7.70;100.00;100579.06;5094334;28;19963;-79
2024/02/06 07:50:41;;;;;;;;;;;;;;;7.84;100.00;100565.84;5102905;28;20377;-78
2024/02/06 07:53:06;;;;;;;;;;;;;;;7.64;100.00;100582.47;5098374;28;20379;-78
2024/02/06 07:55:31;;;;;;;;;;;;;;;7.70;100.00;100563.00;5100817;28;20338;-78
2024/02/06 07:57:57;;;;;;;;;;;;;;;7.69;100.00;100574.72;5092589;28;20329;-78
2024/02/06 08:00:22;;;;;;;;;;;;;;;7.68;100.00;100562.34;5091894;28;20365;-79
2024/02/06 08:02:48;;;;;;;;;;;;;;;7.81;100.00;100566.22;5095127;28;19924;-79
2024/02/06 08:05:14;;;;;;;;;;;;;;;7.81;100.00;100566.22;5100622;28;19919;-79
2024/02/06 08:07:40;;;;;;;;;;;;;;;7.72;100.00;100562.81;5093806;28;19924;-79
2024/02/06 08:10:06;;;;;;;;;;;;;;;7.69;100.00;100553.28;5102229;28;19981;-79
2024/02/06 08:12:32;;;;;;;;;;;;;;;7.79;100.00;100549.50;5098410;28;19920;-79
2024/02/06 08:14:57;;;;;;;;;;;;;;;7.68;100.00;100548.94;5095488;28;20014;-79
2024/02/06 08:17:23;;;;;;;;;;;;;;;7.72;100.00;100544.88;5092071;28;19955;-79
2024/02/06 08:19:51;;;;;;;;;;;;;;;7.67;100.00;100549.97;5095556;28;20302;-79
2024/02/06 08:22:16;;;;;;;;;;;;;;;7.67;100.00;100547.28;5107404;28;20302;-79
2024/02/06 08:24:41;;;;;;;;;;;;;;;7.73;100.00;100543.88;5102307;28;19924;-78
2024/02/06 08:27:07;;;;;;;;;;;;;;;7.72;100.00;100563.66;5103980;28;19924;-80
2024/02/06 08:29:32;;;;;;;;;;;;;;;7.72;100.00;100552.09;5096527;28;19931;-79
2024/02/06 08:31:57;;;;;;;;;;;;;;;7.77;100.00;100554.19;5092489;28;19920;-78
2024/02/06 08:34:29;;;;;;;;;;;;;;;7.72;100.00;100552.09;5102701;28;19927;-79
2024/02/06 08:37:00;;;;;;;;;;;;;;;7.67;100.00;100552.66;5101780;28;20355;-79
2024/02/06 08:39:27;;;;;;;;;;;;;;;7.79;100.00;100542.28;5103655;28;19968;-78
2024/02/06 08:41:52;;;;;;;;;;;;;;;7.77;100.00;100543.47;5093121;28;19974;-79
2024/02/06 08:44:20;;;;;;;;;;;;;;;7.71;100.00;100535.19;5105951;28;20353;-77
2024/02/06 08:46:45;;;;;;;;;;;;;;;7.76;100.00;100533.81;5095614;28;19920;-77
2024/02/06 08:49:10;;;;;;;;;;;;;;;7.76;100.00;100531.94;5093379;28;19924;-77
2024/02/06 08:51:51;;;;;;;;;;;;;;;7.84;100.00;100533.69;5103296;28;19919;-79
2024/02/06 08:54:17;;;;;;;;;;;;;;;7.92;100.00;100517.53;5100936;28;20367;-78
2024/02/06 08:56:42;;;;;;;;;;;;;;;8.00;100.00;100520.06;5097295;28;20332;-79
2024/02/06 08:59:07;;;;;;;;;;;;;;;8.03;100.00;100522.38;5097604;28;19978;-78
2024/02/06 09:01:33;;;;;;;;;;;;;;;8.12;100.00;100503.53;5091318;28;20011;-79
2024/02/06 09:03:58;;;;;;;;;;;;;;;8.15;100.00;100514.69;5090434;28;19916;-79
2024/02/06 09:06:23;;;;;;;;;;;;;;;8.16;100.00;100515.50;5103072;28;19934;-79
2024/02/06 09:08:49;;;;;;;;;;;;;;;8.07;100.00;100509.44;5099752;28;20029;-79
2024/02/06 09:11:14;;;;;;;;;;;;;;;8.08;100.00;100529.03;5092622;28;19931;-79
2024/02/06 09:13:39;;;;;;;;;;;;;;;8.08;100.00;100521.81;5094546;28;20360;-79
2024/02/06 09:16:05;;;;;;;;;;;;;;;8.17;100.00;100523.38;5083148;28;20385;-78
2024/02/06 09:18:30;;;;;;;;;;;;;;;8.15;100.00;100508.47;5096004;28;20428;-79
2024/02/06 09:20:55;;;;;;;;;;;;;;;8.25;100.00;100492.09;5097507;28;20434;-78
2024/02/06 09:23:20;;;;;;;;;;;;;;;8.24;100.00;100512.72;5097140;28;20395;-78
2024/02/06 09:25:46;;;;;;;;;;;;;;;8.18;100.00;100498.22;5105459;28;20397;-79
2024/02/06 09:28:11;;;;;;;;;;;;;;;8.24;100.00;100493.94;5093401;28;19920;-78
2024/02/06 09:30:39;;;;;;;;;;;;;;;8.24;100.00;100496.63;5091810;28;19916;-78
2024/02/06 09:33:04;;;;;;;;;;;;;;;8.33;100.00;100475.88;5098381;28;21000;-79
2024/02/06 09:35:30;;;;;;;;;;;;;;;8.46;100.00;100478.69;5092587;28;19939;-79
2024/02/06 09:37:55;;;;;;;;;;;;;;;8.40;100.00;100473.25;5102366;28;19919;-79
2024/02/06 09:40:23;;;;;;;;;;;;;;;8.52;100.00;100450.28;5106715;28;19959;-78
2024/02/06 09:42:48;;;;;;;;;;;;;;;8.47;100.00;100480.34;5091492;28;20368;-78
2024/02/06 09:45:14;;;;;;;;;;;;;;;8.67;100.00;100476.19;5103650;28;19938;-79
2024/02/06 09:47:40;;;;;;;;;;;;;;;8.58;100.00;100486.22;5092162;28;20003;-78
2024/02/06 09:50:06;;;;;;;;;;;;;;;8.69;100.00;100466.94;5093117;28;20333;-78
2024/02/06 09:52:31;;;;;;;;;;;;;;;8.72;100.00;100463.03;5097746;28;19925;-78
2024/02/06 09:54:56;;;;;;;;;;;;;;;8.85;100.00;100448.88;5102438;28;19932;-78
2024/02/06 09:57:21;;;;;;;;;;;;;;;8.84;100.00;100448.03;5091316;28;19916;-77
2024/02/06 09:59:51;;;;;;;;;;;;;;;8.84;100.00;100460.66;5103658;28;19924;-78
2024/02/06 10:02:16;;;;;;;;;;;;;;;8.72;100.00;100460.34;5108411;28;20207;-78
2024/02/06 10:04:42;;;;;;;;;;;;;;;8.79;100.00;100454.00;5082264;28;19928;-78
2024/02/06 10:07:07;;;;;;;;;;;;;;;8.78;100.00;100462.28;5091678;28;20272;-78
2024/02/06 10:09:32;;;;;;;;;;;;;;;8.88;100.00;100472.66;5102353;28;20283;-78
2024/02/06 10:11:57;;;;;;;;;;;;;;;8.99;100.00;100455.19;5101144;28;20279;-78
2024/02/06 10:14:22;;;;;;;;;;;;;;;9.07;100.00;100436.22;5085101;28;20011;-78
2024/02/06 10:16:48;;;;;;;;;;;;;;;9.29;100.00;100452.25;5097635;28;19993;-78
2024/02/06 10:19:13;;;;;;;;;;;;;;;9.36;100.00;100451.28;5090061;28;19924;-78
2024/02/06 10:21:39;;;;;;;;;;;;;;;9.22;100.00;100452.22;5092401;28;19924;-78
2024/02/06 10:24:04;;;;;;;;;;;;;;;9.35;100.00;100443.44;5101443;28;20371;-78
2024/02/06 10:26:29;;;;;;;;;;;;;;;9.35;100.00;100448.78;5098555;28;20359;-78
2024/02/06 10:29:08;;;;;;;;;;;;;;;9.39;100.00;100445.50;5098937;28;19924;-78
2024/02/06 10:31:34;;;;;;;;;;;;;;;9.29;100.00;100445.03;5105246;28;19923;-78
2024/02/06 10:34:05;;;;;;;;;;;;;;;9.32;100.00;100450.00;5097979;28;19926;-78
2024/02/06 10:36:32;;;;;;;;;;;;;;;9.28;100.00;100442.53;5094747;28;19920;-78
2024/02/06 10:38:57;;;;;;;;;;;;;;;9.49;100.00;100442.44;5082530;28;19919;-78
2024/02/06 10:41:22;;;;;;;;;;;;;;;9.43;100.00;100435.19;5088814;28;19997;-78
2024/02/06 10:43:48;;;;;;;;;;;;;;;9.51;100.00;100437.72;5086260;28;20665;-78
2024/02/06 10:46:22;;;;;;;;;;;;;;;9.53;100.00;100443.69;5095561;28;20352;-78
2024/02/06 10:48:47;;;;;;;;;;;;;;;9.47;100.00;100441.81;5103734;28;19920;-78
2024/02/06 10:51:20;;;;;;;;;;;;;;;9.44;100.00;100436.84;5097868;28;19920;-77
2024/02/06 10:53:45;;;;;;;;;;;;;;;9.58;100.00;100436.88;5112928;22;19932;-76
2024/02/06 10:56:23;;;;;;;;;;;;;;;9.56;100.00;100418.28;5077647;28;19928;-78
2024/02/06 10:58:57;;;;;;;;;;;;;;;9.55;100.00;100428.19;5090898;28;19975;-78
2024/02/06 11:01:24;;;;;;;;;;;;;;;9.51;100.00;100447.63;5092227;28;19919;-78
2024/02/06 11:03:54;;;;;;;;;;;;;;;9.56;100.00;100424.47;5099113;22;19973;-77
2024/02/06 11:06:22;;;;;;;;;;;;;;;9.73;100.00;100418.75;5130836;27;19919;-77
2024/02/06 11:08:48;;;;;;;;;;;;;;;9.97;100.00;100420.03;5121562;27;19915;-77
2024/02/06 11:11:13;;;;;;;;;;;;;;;9.98;100.00;100428.97;5127803;27;19923;-78
2024/02/06 11:13:50;;;;;;;;;;;;;;;10.02;100.00;100417.59;5120659;22;20555;-78
2024/02/06 11:16:19;;;;;;;;;;;;;;;9.91;100.00;100410.13;5082322;28;20286;-77
2024/02/06 11:19:03;;;;;;;;;;;;;;;10.02;100.00;100414.06;5087055;28;20672;-78
2024/02/06 11:21:30;;;;;;;;;;;;;;;10.01;100.00;100385.53;5107391;28;19919;-78
2024/02/06 11:23:56;;;;;;;;;;;;;;;10.19;100.00;100362.59;5086830;28;19920;-77
2024/02/06 11:26:21;;;;;;;;;;;;;;;10.08;100.00;100402.47;5079806;28;19942;-77
2024/02/06 11:28:46;;;;;;;;;;;;;;;10.10;100.00;100394.22;5096000;28;20283;-77
2024/02/06 11:31:12;;;;;;;;;;;;;;;10.24;100.00;100393.19;5097216;28;20470;-77
2024/02/06 11:33:38;;;;;;;;;;;;;;;10.38;100.00;100404.84;5099656;28;19923;-77
2024/02/06 11:36:12;;;;;;;;;;;;;;;10.39;100.00;100405.66;5111923;28;19927;-77
2024/02/06 11:38:37;;;;;;;;;;;;;;;10.46;100.00;100395.72;5103860;28;19924;-78
2024/02/06 11:41:10;;;;;;;;;;;;;;;10.46;100.00;100384.97;5095395;28;20379;-77
2024/02/06 11:43:35;;;;;;;;;;;;;;;10.25;100.00;100391.31;5095742;28;20316;-78
2024/02/06 11:46:01;;;;;;;;;;;;;;;10.13;100.00;100364.25;5081946;28;19919;-78
2024/02/06 11:48:26;;;;;;;;;;;;;;;10.03;100.00;100378.09;5103441;28;19936;-77
2024/02/06 11:50:51;;;;;;;;;;;;;;;10.14;100.00;100377.47;5104846;28;20402;-77
2024/02/06 11:53:17;;;;;;;;;;;;;;;9.94;100.00;100376.63;5104941;28;19923;-77
2024/02/06 11:55:45;;;;;;;;;;;;;;;9.85;100.00;100376.81;5106678;28;19961;-77
2024/02/06 11:58:13;;;;;;;;;;;;;;;9.71;100.00;100381.34;5110138;28;19929;-77
2024/02/06 12:00:38;;;;;;;;;;;;;;;9.70;100.00;100378.84;5116255;22;20446;-77
2024/02/06 12:03:06;;;;;;;;;;;;;;;9.75;100.00;100379.06;5115242;27;19989;-77
2024/02/06 12:05:38;;;;;;;;;;;;;;;9.70;100.00;100365.41;5121472;27;19962;-77
2024/02/06 12:08:04;;;;;;;;;;;;;;;9.54;100.00;100367.41;5121810;27;19920;-77
2024/02/06 12:10:30;;;;;;;;;;;;;;;9.55;100.00;100379.81;5114914;27;19947;-78
2024/02/06 12:12:56;;;;;;;;;;;;;;;9.54;100.00;100364.72;5119869;27;20417;-77
2024/02/06 12:15:22;;;;;;;;;;;;;;;9.49;100.00;100383.34;5120357;27;20323;-77
2024/02/06 12:17:47;;;;;;;;;;;;;;;9.40;100.00;100368.41;5116899;27;19935;-77
2024/02/06 12:20:12;;;;;;;;;;;;;;;9.60;100.00;100365.81;5121909;27;20019;-77
2024/02/06 12:22:37;;;;;;;;;;;;;;;9.52;100.00;100347.16;5121912;27;19926;-77
2024/02/06 12:25:03;;;;;;;;;;;;;;;9.48;100.00;100343.22;5117158;27;20018;-77
2024/02/06 12:27:28;;;;;;;;;;;;;;;9.45;100.00;100341.78;5113448;27;19955;-77